sensor_id;sensor_type;location;lat;lon;timestamp;pressure;altitude;pressure_sealevel;temperature;humidity
32875;BME280;40468;42.128;24.750;2023-04-08T00:00:10;99919.03;;;9.92;43.87
32875;BME280;40468;42.128;24.750;2023-04-08T00:01:43;99920.81;;;9.90;43.89
32875;BME280;40468;42.128;24.750;2023-04-08T00:03:15;99921.75;;;9.89;44.17
32875;BME280;40468;42.128;24.750;2023-04-08T00:05:05;99925.22;;;9.88;43.97
32875;BME280;40468;42.128;24.750;2023-04-08T00:06:37;99920.94;;;9.87;44.21
32875;BME280;40468;42.128;24.750;2023-04-08T00:08:09;99926.16;;;9.87;43.96
32875;BME280;40468;42.128;24.750;2023-04-08T00:09:41;99923.56;;;9.87;44.07
32875;BME280;40468;42.128;24.750;2023-04-08T00:11:13;99927.00;;;9.87;44.17
32875;BME280;40468;42.128;24.750;2023-04-08T00:12:46;99926.16;;;9.87;44.32
32875;BME280;40468;42.128;24.750;2023-04-08T00:14:20;99921.16;;;9.82;44.11
32875;BME280;40468;42.128;24.750;2023-04-08T00:15:51;99920.34;;;9.80;44.19
32875;BME280;40468;42.128;24.750;2023-04-08T00:17:22;99920.41;;;9.78;44.54
32875;BME280;40468;42.128;24.750;2023-04-08T00:18:54;99925.94;;;9.71;44.81
32875;BME280;40468;42.128;24.750;2023-04-08T00:20:26;99924.53;;;9.62;44.66
32875;BME280;40468;42.128;24.750;2023-04-08T00:21:57;99929.19;;;9.54;44.97
32875;BME280;40468;42.128;24.750;2023-04-08T00:23:29;99931.94;;;9.49;45.08
32875;BME280;40468;42.128;24.750;2023-04-08T00:25:01;99935.66;;;9.44;45.51
32875;BME280;40468;42.128;24.750;2023-04-08T00:26:35;99934.19;;;9.37;45.38
32875;BME280;40468;42.128;24.750;2023-04-08T00:28:07;99930.06;;;9.31;45.51
32875;BME280;40468;42.128;24.750;2023-04-08T00:29:40;99935.44;;;9.26;45.90
32875;BME280;40468;42.128;24.750;2023-04-08T00:31:12;99929.56;;;9.21;45.82
32875;BME280;40468;42.128;24.750;2023-04-08T00:32:43;99932.16;;;9.21;46.12
32875;BME280;40468;42.128;24.750;2023-04-08T00:34:16;99937.41;;;9.20;46.17
32875;BME280;40468;42.128;24.750;2023-04-08T00:35:47;99928.88;;;9.16;46.27
32875;BME280;40468;42.128;24.750;2023-04-08T00:37:20;99927.25;;;9.14;46.27
32875;BME280;40468;42.128;24.750;2023-04-08T00:38:52;99926.47;;;9.11;46.49
32875;BME280;40468;42.128;24.750;2023-04-08T00:40:24;99933.50;;;9.08;46.59
32875;BME280;40468;42.128;24.750;2023-04-08T00:41:56;99929.22;;;9.07;46.79
32875;BME280;40468;42.128;24.750;2023-04-08T00:43:28;99931.81;;;9.07;46.80
32875;BME280;40468;42.128;24.750;2023-04-08T00:45:01;99928.50;;;9.03;46.92
32875;BME280;40468;42.128;24.750;2023-04-08T00:46:35;99926.13;;;8.97;47.42
32875;BME280;40468;42.128;24.750;2023-04-08T00:48:07;99931.44;;;8.94;47.28
32875;BME280;40468;42.128;24.750;2023-04-08T00:49:39;99932.38;;;8.92;47.71
32875;BME280;40468;42.128;24.750;2023-04-08T00:51:11;99940.28;;;8.88;47.69
32875;BME280;40468;42.128;24.750;2023-04-08T00:52:43;99941.13;;;8.89;47.69
32875;BME280;40468;42.128;24.750;2023-04-08T00:54:15;99940.22;;;8.90;47.98
32875;BME280;40468;42.128;24.750;2023-04-08T00:55:47;99947.91;;;8.93;48.03
32875;BME280;40468;42.128;24.750;2023-04-08T00:57:18;99943.56;;;8.94;48.12
32875;BME280;40468;42.128;24.750;2023-04-08T00:58:50;99938.50;;;8.91;48.48
32875;BME280;40468;42.128;24.750;2023-04-08T01:00:27;99943.63;;;8.92;48.56
32875;BME280;40468;42.128;24.750;2023-04-08T01:02:06;99946.50;;;8.84;49.38
32875;BME280;40468;42.128;24.750;2023-04-08T01:03:49;99945.00;;;8.77;49.95
32875;BME280;40468;42.128;24.750;2023-04-08T01:05:29;99950.31;;;8.74;49.99
32875;BME280;40468;42.128;24.750;2023-04-08T01:07:09;99958.22;;;8.71;50.40
32875;BME280;40468;42.128;24.750;2023-04-08T01:08:42;99957.47;;;8.68;50.92
32875;BME280;40468;42.128;24.750;2023-04-08T01:10:17;99958.34;;;8.66;51.21
32875;BME280;40468;42.128;24.750;2023-04-08T01:11:51;99956.56;;;8.69;51.44
32875;BME280;40468;42.128;24.750;2023-04-08T01:13:25;99841.31;;;7.99;51.99
32875;BME280;40468;42.128;24.750;2023-04-08T01:15:00;99957.47;;;8.68;52.17
32875;BME280;40468;42.128;24.750;2023-04-08T01:16:37;99957.59;;;8.64;52.44
32875;BME280;40468;42.128;24.750;2023-04-08T01:18:13;99963.72;;;8.62;52.66
32875;BME280;40468;42.128;24.750;2023-04-08T01:19:47;99960.22;;;8.63;52.78
32875;BME280;40468;42.128;24.750;2023-04-08T01:21:19;99964.47;;;8.65;52.78
32875;BME280;40468;42.128;24.750;2023-04-08T01:23:02;99969.63;;;8.67;53.04
32875;BME280;40468;42.128;24.750;2023-04-08T01:24:39;99957.53;;;8.66;53.32
32875;BME280;40468;42.128;24.750;2023-04-08T01:26:20;99953.34;;;8.62;53.50
32875;BME280;40468;42.128;24.750;2023-04-08T01:27:54;99849.09;;;7.99;53.82
32875;BME280;40468;42.128;24.750;2023-04-08T01:29:28;99960.06;;;8.68;54.11
32875;BME280;40468;42.128;24.750;2023-04-08T01:31:01;99960.19;;;8.64;54.44
32875;BME280;40468;42.128;24.750;2023-04-08T01:32:34;99962.81;;;8.63;54.74
32875;BME280;40468;42.128;24.750;2023-04-08T01:34:07;99955.13;;;8.60;54.84
32875;BME280;40468;42.128;24.750;2023-04-08T01:35:41;99961.28;;;8.57;55.24
32875;BME280;40468;42.128;24.750;2023-04-08T01:37:14;99951.19;;;8.50;55.74
32875;BME280;40468;42.128;24.750;2023-04-08T01:38:46;99959.16;;;8.43;55.38
32875;BME280;40468;42.128;24.750;2023-04-08T01:40:19;99967.94;;;8.39;55.79
32875;BME280;40468;42.128;24.750;2023-04-08T01:41:53;99961.06;;;8.37;56.10
32875;BME280;40468;42.128;24.750;2023-04-08T01:43:27;99965.59;;;8.32;56.80
32875;BME280;40468;42.128;24.750;2023-04-08T01:44:58;99957.00;;;8.30;56.73
32875;BME280;40468;42.128;24.750;2023-04-08T01:46:31;99919.94;;;8.00;57.04
32875;BME280;40468;42.128;24.750;2023-04-08T01:48:04;99957.25;;;8.22;56.89
32875;BME280;40468;42.128;24.750;2023-04-08T01:49:37;99967.50;;;8.25;57.08
32875;BME280;40468;42.128;24.750;2023-04-08T01:51:08;99960.50;;;8.29;57.33
32875;BME280;40468;42.128;24.750;2023-04-08T01:52:42;99973.28;;;8.35;57.15
32875;BME280;40468;42.128;24.750;2023-04-08T01:54:15;99972.31;;;8.37;57.50
32875;BME280;40468;42.128;24.750;2023-04-08T01:55:52;99972.28;;;8.39;57.39
32875;BME280;40468;42.128;24.750;2023-04-08T01:57:31;99974.88;;;8.39;57.69
32875;BME280;40468;42.128;24.750;2023-04-08T01:59:07;99980.25;;;8.33;57.90
32875;BME280;40468;42.128;24.750;2023-04-08T02:00:41;99985.50;;;8.31;58.28
32875;BME280;40468;42.128;24.750;2023-04-08T02:02:14;99991.75;;;8.26;58.58
32875;BME280;40468;42.128;24.750;2023-04-08T02:03:46;99989.28;;;8.21;58.73
32875;BME280;40468;42.128;24.750;2023-04-08T02:05:21;99981.66;;;8.16;59.03
32875;BME280;40468;42.128;24.750;2023-04-08T02:06:54;99983.44;;;8.14;59.27
32875;BME280;40468;42.128;24.750;2023-04-08T02:08:26;99983.53;;;8.11;59.59
32875;BME280;40468;42.128;24.750;2023-04-08T02:09:57;99979.41;;;8.06;59.49
32875;BME280;40468;42.128;24.750;2023-04-08T02:11:29;99985.59;;;8.02;59.70
32875;BME280;40468;42.128;24.750;2023-04-08T02:13:02;99977.88;;;7.98;59.75
32875;BME280;40468;42.128;24.750;2023-04-08T02:14:34;99979.78;;;7.93;60.26
32875;BME280;40468;42.128;24.750;2023-04-08T02:16:09;99983.25;;;7.92;60.63
32875;BME280;40468;42.128;24.750;2023-04-08T02:17:47;99986.94;;;7.87;60.97
32875;BME280;40468;42.128;24.750;2023-04-08T02:19:25;99987.88;;;7.84;61.13
32875;BME280;40468;42.128;24.750;2023-04-08T02:21:04;99967.34;;;7.77;61.20
32875;BME280;40468;42.128;24.750;2023-04-08T02:22:43;99968.38;;;7.71;61.43
32875;BME280;40468;42.128;24.750;2023-04-08T02:24:19;99995.03;;;7.76;61.90
32875;BME280;40468;42.128;24.750;2023-04-08T02:25:54;99995.16;;;7.71;62.33
32875;BME280;40468;42.128;24.750;2023-04-08T02:27:27;99990.16;;;7.65;62.95
32875;BME280;40468;42.128;24.750;2023-04-08T02:29:01;99994.78;;;7.54;63.29
32875;BME280;40468;42.128;24.750;2023-04-08T02:30:34;99994.19;;;7.46;63.55
32875;BME280;40468;42.128;24.750;2023-04-08T02:32:07;99997.81;;;7.40;64.07
32875;BME280;40468;42.128;24.750;2023-04-08T02:33:42;99983.94;;;7.43;64.13
32875;BME280;40468;42.128;24.750;2023-04-08T02:35:15;99983.84;;;7.46;64.46
32875;BME280;40468;42.128;24.750;2023-04-08T02:36:49;99990.69;;;7.47;65.00
32875;BME280;40468;42.128;24.750;2023-04-08T02:38:20;99988.09;;;7.48;64.95
32875;BME280;40468;42.128;24.750;2023-04-08T02:39:53;99985.50;;;7.48;65.00
32875;BME280;40468;42.128;24.750;2023-04-08T02:41:27;99988.09;;;7.48;64.90
32875;BME280;40468;42.128;24.750;2023-04-08T02:42:59;99992.31;;;7.51;65.26
32875;BME280;40468;42.128;24.750;2023-04-08T02:44:33;99996.53;;;7.53;65.11
32875;BME280;40468;42.128;24.750;2023-04-08T02:46:04;99993.97;;;7.53;65.06
32875;BME280;40468;42.128;24.750;2023-04-08T02:47:36;99988.88;;;7.50;65.48
32875;BME280;40468;42.128;24.750;2023-04-08T02:49:08;99995.88;;;7.47;65.74
32875;BME280;40468;42.128;24.750;2023-04-08T02:50:40;99965.25;;;7.32;65.85
32875;BME280;40468;42.128;24.750;2023-04-08T02:52:12;99989.03;;;7.44;66.13
32875;BME280;40468;42.128;24.750;2023-04-08T02:53:44;99986.53;;;7.43;66.35
32875;BME280;40468;42.128;24.750;2023-04-08T02:55:15;99988.19;;;7.45;66.35
32875;BME280;40468;42.128;24.750;2023-04-08T02:56:47;99996.59;;;7.52;66.44
32875;BME280;40468;42.128;24.750;2023-04-08T02:58:19;99997.34;;;7.56;66.42
32875;BME280;40468;42.128;24.750;2023-04-08T02:59:53;100004.09;;;7.61;66.19
32875;BME280;40468;42.128;24.750;2023-04-08T03:01:24;99999.66;;;7.65;66.28
32875;BME280;40468;42.128;24.750;2023-04-08T03:02:56;100003.00;;;7.70;66.31
32875;BME280;40468;42.128;24.750;2023-04-08T03:04:28;100003.00;;;7.68;66.43
32875;BME280;40468;42.128;24.750;2023-04-08T03:05:58;100011.69;;;7.67;66.41
32875;BME280;40468;42.128;24.750;2023-04-08T03:07:30;100005.59;;;7.68;66.64
32875;BME280;40468;42.128;24.750;2023-04-08T03:09:03;100016.81;;;7.69;66.74
32875;BME280;40468;42.128;24.750;2023-04-08T03:10:35;100016.97;;;7.64;66.83
32875;BME280;40468;42.128;24.750;2023-04-08T03:12:06;100012.72;;;7.62;66.76
32875;BME280;40468;42.128;24.750;2023-04-08T03:13:38;100014.41;;;7.63;66.90
32875;BME280;40468;42.128;24.750;2023-04-08T03:15:11;100023.72;;;7.70;67.09
32875;BME280;40468;42.128;24.750;2023-04-08T03:16:43;100012.44;;;7.71;67.04
32875;BME280;40468;42.128;24.750;2023-04-08T03:18:15;99953.84;;;7.37;67.29
32875;BME280;40468;42.128;24.750;2023-04-08T03:19:47;100002.06;;;7.71;67.21
32875;BME280;40468;42.128;24.750;2023-04-08T03:21:19;100015.69;;;7.78;67.27
32875;BME280;40468;42.128;24.750;2023-04-08T03:22:51;100016.50;;;7.80;67.36
32875;BME280;40468;42.128;24.750;2023-04-08T03:24:23;100027.69;;;7.82;67.51
32875;BME280;40468;42.128;24.750;2023-04-08T03:25:55;100025.00;;;7.85;67.37
32875;BME280;40468;42.128;24.750;2023-04-08T03:27:26;100018.16;;;7.82;67.57
32875;BME280;40468;42.128;24.750;2023-04-08T03:28:59;100012.25;;;7.77;67.75
32875;BME280;40468;42.128;24.750;2023-04-08T03:30:32;100013.25;;;7.73;68.18
32875;BME280;40468;42.128;24.750;2023-04-08T03:32:04;100007.34;;;7.68;68.03
32875;BME280;40468;42.128;24.750;2023-04-08T03:33:36;100010.75;;;7.70;68.18
32875;BME280;40468;42.128;24.750;2023-04-08T03:35:08;100017.69;;;7.69;68.27
32875;BME280;40468;42.128;24.750;2023-04-08T03:36:40;100017.72;;;7.68;68.07
32875;BME280;40468;42.128;24.750;2023-04-08T03:38:12;100016.06;;;7.65;68.28
32875;BME280;40468;42.128;24.750;2023-04-08T03:39:44;100016.16;;;7.62;68.39
32875;BME280;40468;42.128;24.750;2023-04-08T03:41:15;100018.72;;;7.64;68.54
32875;BME280;40468;42.128;24.750;2023-04-08T03:42:47;100022.19;;;7.63;68.63
32875;BME280;40468;42.128;24.750;2023-04-08T03:44:19;100013.56;;;7.62;68.62
32875;BME280;40468;42.128;24.750;2023-04-08T03:45:51;100017.81;;;7.65;68.75
32875;BME280;40468;42.128;24.750;2023-04-08T03:47:23;100014.47;;;7.61;68.63
32875;BME280;40468;42.128;24.750;2023-04-08T03:48:55;100023.22;;;7.57;69.04
32875;BME280;40468;42.128;24.750;2023-04-08T03:50:27;100018.13;;;7.54;69.24
32875;BME280;40468;42.128;24.750;2023-04-08T03:53:56;100001.50;;;7.32;69.42
32875;BME280;40468;42.128;24.750;2023-04-08T03:55:28;100021.78;;;7.47;69.31
32875;BME280;40468;42.128;24.750;2023-04-08T03:57:00;100028.75;;;7.45;69.61
32875;BME280;40468;42.128;24.750;2023-04-08T03:58:31;100022.56;;;7.50;69.52
32875;BME280;40468;42.128;24.750;2023-04-08T04:00:04;100029.41;;;7.53;69.52
32875;BME280;40468;42.128;24.750;2023-04-08T04:01:38;100038.94;;;7.51;69.72
32875;BME280;40468;42.128;24.750;2023-04-08T04:03:08;100033.84;;;7.48;69.75
32875;BME280;40468;42.128;24.750;2023-04-08T04:04:42;100035.78;;;7.41;69.66
32875;BME280;40468;42.128;24.750;2023-04-08T04:06:14;100040.19;;;7.38;70.01
32875;BME280;40468;42.128;24.750;2023-04-08T04:07:45;100039.22;;;7.42;69.92
32875;BME280;40468;42.128;24.750;2023-04-08T04:09:17;100035.69;;;7.44;70.08
32875;BME280;40468;42.128;24.750;2023-04-08T04:10:49;100036.41;;;7.49;70.25
32875;BME280;40468;42.128;24.750;2023-04-08T04:12:22;100038.84;;;7.54;70.14
32875;BME280;40468;42.128;24.750;2023-04-08T04:13:53;100032.81;;;7.53;70.20
32875;BME280;40468;42.128;24.750;2023-04-08T04:15:25;100040.59;;;7.53;70.16
32875;BME280;40468;42.128;24.750;2023-04-08T04:16:58;100045.84;;;7.52;70.19
32875;BME280;40468;42.128;24.750;2023-04-08T04:18:29;100048.44;;;7.52;70.28
32875;BME280;40468;42.128;24.750;2023-04-08T04:20:03;100044.94;;;7.53;70.20
32875;BME280;40468;42.128;24.750;2023-04-08T04:21:34;100048.63;;;7.46;70.27
32875;BME280;40468;42.128;24.750;2023-04-08T04:23:06;100045.22;;;7.42;70.53
32875;BME280;40468;42.128;24.750;2023-04-08T04:24:38;100049.50;;;7.45;70.33
32875;BME280;40468;42.128;24.750;2023-04-08T04:26:10;100011.38;;;7.19;70.57
32875;BME280;40468;42.128;24.750;2023-04-08T04:27:42;100049.28;;;7.52;70.73
32875;BME280;40468;42.128;24.750;2023-04-08T04:29:14;100048.34;;;7.55;70.89
32875;BME280;40468;42.128;24.750;2023-04-08T04:30:46;100047.34;;;7.59;70.79
32875;BME280;40468;42.128;24.750;2023-04-08T04:32:19;100036.03;;;7.63;70.93
32875;BME280;40468;42.128;24.750;2023-04-08T04:33:51;99974.88;;;7.26;71.06
32875;BME280;40468;42.128;24.750;2023-04-08T04:35:23;100041.88;;;7.70;71.15
32875;BME280;40468;42.128;24.750;2023-04-08T04:36:55;100034.03;;;7.71;70.87
32875;BME280;40468;42.128;24.750;2023-04-08T04:38:27;100043.38;;;7.77;70.73
32875;BME280;40468;42.128;24.750;2023-04-08T04:39:58;100041.59;;;7.79;70.69
32875;BME280;40468;42.128;24.750;2023-04-08T04:41:30;100047.59;;;7.81;70.57
32875;BME280;40468;42.128;24.750;2023-04-08T04:43:02;100039.81;;;7.81;70.61
32875;BME280;40468;42.128;24.750;2023-04-08T04:44:34;100051.03;;;7.82;70.39
32875;BME280;40468;42.128;24.750;2023-04-08T04:46:06;100044.28;;;7.76;70.52
32875;BME280;40468;42.128;24.750;2023-04-08T04:47:39;100049.56;;;7.73;70.42
32875;BME280;40468;42.128;24.750;2023-04-08T04:49:11;100049.66;;;7.70;70.40
32875;BME280;40468;42.128;24.750;2023-04-08T04:50:42;100053.06;;;7.72;71.05
32875;BME280;40468;42.128;24.750;2023-04-08T04:52:14;100053.00;;;7.73;71.04
32875;BME280;40468;42.128;24.750;2023-04-08T04:53:46;100051.22;;;7.75;70.79
32875;BME280;40468;42.128;24.750;2023-04-08T04:55:18;100046.88;;;7.76;71.06
32875;BME280;40468;42.128;24.750;2023-04-08T04:56:51;100045.97;;;7.77;71.14
32875;BME280;40468;42.128;24.750;2023-04-08T04:58:23;100045.00;;;7.81;71.18
32875;BME280;40468;42.128;24.750;2023-04-08T04:59:55;100048.44;;;7.82;71.34
32875;BME280;40468;42.128;24.750;2023-04-08T05:01:27;100051.75;;;7.87;71.32
32875;BME280;40468;42.128;24.750;2023-04-08T05:02:59;100049.06;;;7.90;71.39
32875;BME280;40468;42.128;24.750;2023-04-08T05:04:31;100049.00;;;7.91;71.24
32875;BME280;40468;42.128;24.750;2023-04-08T05:06:03;100051.50;;;7.94;71.30
32875;BME280;40468;42.128;24.750;2023-04-08T05:07:35;100051.50;;;7.94;71.41
32875;BME280;40468;42.128;24.750;2023-04-08T05:09:07;100055.66;;;8.00;71.36
32875;BME280;40468;42.128;24.750;2023-04-08T05:10:40;100049.56;;;8.01;71.38
32875;BME280;40468;42.128;24.750;2023-04-08T05:12:12;100050.50;;;7.98;71.19
32875;BME280;40468;42.128;24.750;2023-04-08T05:13:44;100060.09;;;7.96;71.47
32875;BME280;40468;42.128;24.750;2023-04-08T05:15:16;100060.19;;;7.93;71.35
32875;BME280;40468;42.128;24.750;2023-04-08T05:16:48;100059.44;;;7.90;71.55
32875;BME280;40468;42.128;24.750;2023-04-08T05:18:21;100068.19;;;7.86;71.93
32875;BME280;40468;42.128;24.750;2023-04-08T05:19:52;100062.28;;;7.81;72.03
32875;BME280;40468;42.128;24.750;2023-04-08T05:21:23;100070.88;;;7.83;72.22
32875;BME280;40468;42.128;24.750;2023-04-08T05:22:56;100072.44;;;7.88;72.04
32875;BME280;40468;42.128;24.750;2023-04-08T05:24:28;100065.47;;;7.90;72.06
32875;BME280;40468;42.128;24.750;2023-04-08T05:26:00;100067.22;;;7.90;72.05
32875;BME280;40468;42.128;24.750;2023-04-08T05:27:32;100076.78;;;7.88;72.21
32875;BME280;40468;42.128;24.750;2023-04-08T05:29:05;100073.44;;;7.84;72.32
32875;BME280;40468;42.128;24.750;2023-04-08T05:30:36;100075.09;;;7.87;72.26
32875;BME280;40468;42.128;24.750;2023-04-08T05:32:08;100075.94;;;7.87;72.39
32875;BME280;40468;42.128;24.750;2023-04-08T05:33:42;100075.88;;;7.89;72.49
32875;BME280;40468;42.128;24.750;2023-04-08T05:35:13;100078.53;;;7.87;72.45
32875;BME280;40468;42.128;24.750;2023-04-08T05:36:45;100075.94;;;7.87;72.40
32875;BME280;40468;42.128;24.750;2023-04-08T05:38:16;100084.47;;;7.91;72.46
32875;BME280;40468;42.128;24.750;2023-04-08T05:39:48;100077.44;;;7.94;72.26
32875;BME280;40468;42.128;24.750;2023-04-08T05:41:20;100054.38;;;7.85;72.32
32875;BME280;40468;42.128;24.750;2023-04-08T05:42:52;100078.25;;;7.96;72.35
32875;BME280;40468;42.128;24.750;2023-04-08T05:44:23;100073.16;;;7.93;72.45
32875;BME280;40468;42.128;24.750;2023-04-08T05:45:55;100080.94;;;7.93;72.73
32875;BME280;40468;42.128;24.750;2023-04-08T05:47:27;100081.88;;;7.91;72.98
32875;BME280;40468;42.128;24.750;2023-04-08T05:49:00;100078.44;;;7.90;72.88
32875;BME280;40468;42.128;24.750;2023-04-08T05:50:34;100084.41;;;7.92;73.23
32875;BME280;40468;42.128;24.750;2023-04-08T05:52:05;100081.81;;;7.92;73.28
32875;BME280;40468;42.128;24.750;2023-04-08T05:53:37;100083.38;;;7.98;73.15
32875;BME280;40468;42.128;24.750;2023-04-08T05:55:09;100081.59;;;8.00;73.36
32875;BME280;40468;42.128;24.750;2023-04-08T05:56:41;100081.56;;;8.02;73.54
32875;BME280;40468;42.128;24.750;2023-04-08T05:58:15;100084.81;;;8.08;73.23
32875;BME280;40468;42.128;24.750;2023-04-08T05:59:47;100081.09;;;8.17;73.13
32875;BME280;40468;42.128;24.750;2023-04-08T06:01:19;100077.56;;;8.19;73.04
32875;BME280;40468;42.128;24.750;2023-04-08T06:02:51;100074.28;;;8.13;73.00
32875;BME280;40468;42.128;24.750;2023-04-08T06:04:25;100078.53;;;8.15;72.77
32875;BME280;40468;42.128;24.750;2023-04-08T06:05:57;100083.78;;;8.14;72.89
32875;BME280;40468;42.128;24.750;2023-04-08T06:07:28;100081.13;;;8.15;73.05
32875;BME280;40468;42.128;24.750;2023-04-08T06:09:00;100078.50;;;8.17;72.94
32875;BME280;40468;42.128;24.750;2023-04-08T06:10:32;100076.56;;;8.22;73.05
32875;BME280;40468;42.128;24.750;2023-04-08T06:12:04;100077.25;;;8.29;72.74
32875;BME280;40468;42.128;24.750;2023-04-08T06:13:36;100075.31;;;8.35;72.90
32875;BME280;40468;42.128;24.750;2023-04-08T06:15:08;100018.34;;;8.04;72.71
32875;BME280;40468;42.128;24.750;2023-04-08T06:16:44;100076.50;;;8.53;72.44
32875;BME280;40468;42.128;24.750;2023-04-08T06:18:16;100082.19;;;8.64;72.40
32875;BME280;40468;42.128;24.750;2023-04-08T06:19:49;100078.38;;;8.75;71.84
32875;BME280;40468;42.128;24.750;2023-04-08T06:21:21;100086.69;;;8.86;71.90
32875;BME280;40468;42.128;24.750;2023-04-08T06:22:53;100087.28;;;8.94;71.31
32875;BME280;40468;42.128;24.750;2023-04-08T06:24:25;100036.19;;;8.70;71.09
32875;BME280;40468;42.128;24.750;2023-04-08T06:25:58;100087.59;;;9.10;70.68
32875;BME280;40468;42.128;24.750;2023-04-08T06:27:30;100090.16;;;9.11;70.37
32875;BME280;40468;42.128;24.750;2023-04-08T06:29:02;100078.94;;;9.09;70.55
32875;BME280;40468;42.128;24.750;2023-04-08T06:30:34;100084.56;;;9.22;70.12
32875;BME280;40468;42.128;24.750;2023-04-08T06:32:06;100086.72;;;9.34;70.20
32875;BME280;40468;42.128;24.750;2023-04-08T06:33:38;100082.09;;;9.43;69.86
32875;BME280;40468;42.128;24.750;2023-04-08T06:35:11;100078.41;;;9.50;69.46
32875;BME280;40468;42.128;24.750;2023-04-08T06:36:43;100073.81;;;9.56;69.14
32875;BME280;40468;42.128;24.750;2023-04-08T06:38:14;100075.16;;;9.67;68.98
32875;BME280;40468;42.128;24.750;2023-04-08T06:39:46;100078.22;;;9.78;68.52
32875;BME280;40468;42.128;24.750;2023-04-08T06:41:18;100077.03;;;9.87;68.38
32875;BME280;40468;42.128;24.750;2023-04-08T06:42:50;100080.22;;;9.93;68.07
32875;BME280;40468;42.128;24.750;2023-04-08T06:44:23;100078.59;;;9.91;67.61
32875;BME280;40468;42.128;24.750;2023-04-08T06:45:55;100083.72;;;9.94;67.83
32875;BME280;40468;42.128;24.750;2023-04-08T06:47:27;100082.59;;;9.99;67.22
32875;BME280;40468;42.128;24.750;2023-04-08T06:48:59;100078.03;;;10.06;67.02
32875;BME280;40468;42.128;24.750;2023-04-08T06:50:32;100082.06;;;10.13;66.83
32875;BME280;40468;42.128;24.750;2023-04-08T06:52:04;100087.13;;;10.18;66.57
32875;BME280;40468;42.128;24.750;2023-04-08T06:53:37;100073.06;;;10.22;65.86
32875;BME280;40468;42.128;24.750;2023-04-08T06:55:09;100076.97;;;10.34;65.76
32875;BME280;40468;42.128;24.750;2023-04-08T06:56:41;100074.06;;;10.41;65.46
32875;BME280;40468;42.128;24.750;2023-04-08T06:58:13;100076.47;;;10.46;65.23
32875;BME280;40468;42.128;24.750;2023-04-08T06:59:44;100070.25;;;10.50;65.20
32875;BME280;40468;42.128;24.750;2023-04-08T07:01:17;100068.69;;;10.66;64.82
32875;BME280;40468;42.128;24.750;2023-04-08T07:02:49;100077.25;;;10.90;64.46
32875;BME280;40468;42.128;24.750;2023-04-08T07:04:21;100075.63;;;11.08;63.81
32875;BME280;40468;42.128;24.750;2023-04-08T07:05:54;100055.03;;;11.23;63.53
32875;BME280;40468;42.128;24.750;2023-04-08T07:07:26;100074.09;;;11.44;62.45
32875;BME280;40468;42.128;24.750;2023-04-08T07:08:57;100079.81;;;11.52;61.61
32875;BME280;40468;42.128;24.750;2023-04-08T07:10:29;100077.13;;;11.53;61.65
32875;BME280;40468;42.128;24.750;2023-04-08T07:12:01;100062.13;;;11.58;61.07
32875;BME280;40468;42.128;24.750;2023-04-08T07:13:33;100074.03;;;11.83;60.88
32875;BME280;40468;42.128;24.750;2023-04-08T07:15:06;100072.19;;;12.05;60.47
32875;BME280;40468;42.128;24.750;2023-04-08T07:16:38;100078.00;;;12.29;59.51
32875;BME280;40468;42.128;24.750;2023-04-08T07:18:10;100078.19;;;12.44;59.06
32875;BME280;40468;42.128;24.750;2023-04-08T07:19:43;100084.28;;;12.62;58.28
32875;BME280;40468;42.128;24.750;2023-04-08T07:21:16;100081.84;;;12.76;57.86
32875;BME280;40468;42.128;24.750;2023-04-08T07:22:48;100086.81;;;12.98;57.07
32875;BME280;40468;42.128;24.750;2023-04-08T07:24:19;100087.22;;;13.08;56.44
32875;BME280;40468;42.128;24.750;2023-04-08T07:25:51;100082.59;;;13.13;56.09
32875;BME280;40468;42.128;24.750;2023-04-08T07:27:23;100084.34;;;13.12;55.85
32875;BME280;40468;42.128;24.750;2023-04-08T07:28:55;100076.91;;;13.05;55.24
32875;BME280;40468;42.128;24.750;2023-04-08T07:30:27;100081.28;;;13.04;55.25
32875;BME280;40468;42.128;24.750;2023-04-08T07:31:58;100088.13;;;13.07;55.48
32875;BME280;40468;42.128;24.750;2023-04-08T07:33:32;100076.59;;;13.11;55.20
32875;BME280;40468;42.128;24.750;2023-04-08T07:35:04;100086.22;;;13.10;55.13
32875;BME280;40468;42.128;24.750;2023-04-08T07:36:37;100083.50;;;13.12;54.96
32875;BME280;40468;42.128;24.750;2023-04-08T07:38:10;100084.44;;;13.11;54.49
32875;BME280;40468;42.128;24.750;2023-04-08T07:39:42;100058.94;;;12.98;54.20
32875;BME280;40468;42.128;24.750;2023-04-08T07:41:14;100077.50;;;13.10;54.44
32875;BME280;40468;42.128;24.750;2023-04-08T07:42:46;100076.75;;;13.08;54.34
32875;BME280;40468;42.128;24.750;2023-04-08T07:44:18;100081.84;;;13.11;54.48
32875;BME280;40468;42.128;24.750;2023-04-08T07:45:50;100078.38;;;13.28;54.21
32875;BME280;40468;42.128;24.750;2023-04-08T07:47:22;100078.78;;;13.53;53.84
32875;BME280;40468;42.128;24.750;2023-04-08T07:48:54;100078.13;;;13.65;52.85
32875;BME280;40468;42.128;24.750;2023-04-08T07:50:25;100059.25;;;13.76;52.88
32875;BME280;40468;42.128;24.750;2023-04-08T07:51:59;100070.38;;;13.96;52.61
32875;BME280;40468;42.128;24.750;2023-04-08T07:53:31;100069.88;;;14.05;52.22
32875;BME280;40468;42.128;24.750;2023-04-08T07:55:04;100066.66;;;14.16;51.90
32875;BME280;40468;42.128;24.750;2023-04-08T07:56:37;100069.38;;;14.30;51.30
32875;BME280;40468;42.128;24.750;2023-04-08T07:58:09;100073.75;;;14.29;50.78
32875;BME280;40468;42.128;24.750;2023-04-08T07:59:41;100073.09;;;14.26;50.67
32875;BME280;40468;42.128;24.750;2023-04-08T08:01:14;100071.16;;;14.29;50.69
32875;BME280;40468;42.128;24.750;2023-04-08T08:02:47;100078.16;;;14.29;50.46
32875;BME280;40468;42.128;24.750;2023-04-08T08:04:19;100083.31;;;14.15;50.67
32875;BME280;40468;42.128;24.750;2023-04-08T08:05:51;100083.06;;;14.03;50.53
32875;BME280;40468;42.128;24.750;2023-04-08T08:07:24;100072.25;;;13.94;50.75